Time;durP1;ratioP1;P1;durP2;ratioP2;P2;SDS_P1;SDS_P2;PMS_P1;PMS_P2;Temp;Humidity;BMP_temperature;BMP_pressure;BME280_temperature;BME280_humidity;BME280_pressure;Samples;Min_cycle;Max_cycle;Signal;HPM_P1;HPM_P2
2023/09/26 00:00:42;;;;;;;4.83;1.50;;;16.30;99.90;;;;;;4936614;29;20260;-77
2023/09/26 00:03:07;;;;;;;2.70;1.53;;;16.20;99.90;;;;;;4941216;29;20201;-76
2023/09/26 00:05:33;;;;;;;2.50;1.27;;;16.20;99.90;;;;;;4957520;29;20176;-78
2023/09/26 00:08:03;;;;;;;4.37;1.30;;;16.20;99.90;;;;;;4939541;29;20266;-76
2023/09/26 00:10:31;;;;;;;2.17;1.30;;;16.20;99.90;;;;;;4933357;29;20848;-76
2023/09/26 00:12:57;;;;;;;3.80;1.47;;;16.20;99.90;;;;;;4934404;29;20620;-75
2023/09/26 00:15:23;;;;;;;2.50;1.07;;;16.10;99.90;;;;;;4935247;29;20589;-76
2023/09/26 00:17:50;;;;;;;2.50;1.30;;;16.10;99.90;;;;;;4952076;29;20687;-75
2023/09/26 00:20:19;;;;;;;3.57;1.60;;;16.10;99.90;;;;;;4953302;29;20212;-77
2023/09/26 00:22:45;;;;;;;6.90;1.93;;;16.10;99.90;;;;;;4947782;29;20687;-78
2023/09/26 00:25:11;;;;;;;4.00;1.33;;;16.10;99.90;;;;;;4918541;29;20581;-77
2023/09/26 00:27:37;;;;;;;2.80;0.90;;;16.10;99.90;;;;;;4943710;29;20694;-75
2023/09/26 00:30:03;;;;;;;3.70;1.90;;;16.10;99.90;;;;;;4930336;29;20563;-75
2023/09/26 00:32:30;;;;;;;3.97;2.40;;;16.00;99.90;;;;;;4953758;29;20192;-76
2023/09/26 00:34:56;;;;;;;4.30;1.67;;;16.00;99.90;;;;;;4951466;29;20827;-75
2023/09/26 00:37:22;;;;;;;3.33;1.47;;;16.00;99.90;;;;;;4952690;29;20695;-75
2023/09/26 00:39:47;;;;;;;5.40;1.50;;;16.00;99.90;;;;;;4955083;29;20576;-75
2023/09/26 00:42:14;;;;;;;3.53;1.37;;;15.90;99.90;;;;;;4952522;29;20978;-76
2023/09/26 00:44:39;;;;;;;4.17;1.87;;;15.90;99.90;;;;;;4951191;29;20668;-75
2023/09/26 00:47:05;;;;;;;3.10;1.63;;;15.90;99.90;;;;;;4951862;29;20589;-77
2023/09/26 00:49:31;;;;;;;2.93;1.80;;;15.90;99.90;;;;;;4951942;29;20715;-76
2023/09/26 00:52:00;;;;;;;4.83;1.97;;;15.80;99.90;;;;;;4952885;29;20948;-75
2023/09/26 00:54:27;;;;;;;3.27;1.80;;;15.80;99.90;;;;;;4933668;29;20673;-76
2023/09/26 00:56:53;;;;;;;2.80;1.40;;;15.70;99.90;;;;;;4933068;29;20954;-76
2023/09/26 00:59:22;;;;;;;3.13;1.20;;;15.80;99.90;;;;;;4950680;29;20951;-76
2023/09/26 01:01:50;;;;;;;5.40;1.83;;;15.70;99.90;;;;;;4953086;29;20600;-76
2023/09/26 01:04:16;;;;;;;2.90;1.20;;;15.70;99.90;;;;;;4934792;29;20631;-77
2023/09/26 01:06:43;;;;;;;2.43;1.43;;;15.70;99.90;;;;;;4950808;28;20643;-77
2023/09/26 01:09:10;;;;;;;3.87;1.57;;;15.70;99.90;;;;;;4920371;29;20592;-77
2023/09/26 01:11:39;;;;;;;4.63;1.83;;;15.70;99.90;;;;;;4951487;29;21064;-77
2023/09/26 01:14:05;;;;;;;3.60;1.60;;;15.70;99.90;;;;;;4936415;29;20642;-77
2023/09/26 01:16:30;;;;;;;2.83;1.40;;;15.60;99.90;;;;;;4955407;29;20600;-77
2023/09/26 01:18:56;;;;;;;4.53;1.67;;;15.60;99.90;;;;;;4946678;29;20220;-77
2023/09/26 01:21:22;;;;;;;2.53;1.43;;;15.60;99.90;;;;;;4933016;29;21139;-77
2023/09/26 01:23:56;;;;;;;3.10;1.73;;;15.60;99.90;;;;;;4934202;29;20192;-77
2023/09/26 01:26:22;;;;;;;2.23;1.50;;;15.60;99.90;;;;;;4936636;29;20597;-77
2023/09/26 01:28:48;;;;;;;3.40;1.80;;;15.50;99.90;;;;;;4937104;29;20679;-77
2023/09/26 01:31:14;;;;;;;2.80;1.30;;;15.50;99.90;;;;;;4936965;29;20693;-77
2023/09/26 01:33:40;;;;;;;3.03;2.10;;;15.50;99.90;;;;;;4936094;29;20201;-77
2023/09/26 01:36:07;;;;;;;2.57;1.63;;;15.50;99.90;;;;;;4935124;29;20588;-77
2023/09/26 01:38:33;;;;;;;3.10;1.60;;;15.50;99.90;;;;;;4936247;29;20640;-77
2023/09/26 01:40:59;;;;;;;4.67;1.50;;;15.50;99.90;;;;;;4935216;29;20596;-77
2023/09/26 01:43:25;;;;;;;3.90;1.97;;;15.40;99.90;;;;;;4903416;29;20682;-77
2023/09/26 01:45:52;;;;;;;2.30;1.47;;;15.40;99.90;;;;;;4936282;29;20263;-77
2023/09/26 01:48:17;;;;;;;1.97;1.37;;;15.30;99.90;;;;;;4934986;29;20716;-77
2023/09/26 01:50:43;;;;;;;2.97;1.53;;;15.30;99.90;;;;;;4904076;29;21060;-77
2023/09/26 01:53:13;;;;;;;2.00;1.33;;;15.30;99.90;;;;;;4938805;29;20279;-77
2023/09/26 01:55:39;;;;;;;3.30;2.53;;;15.30;99.90;;;;;;4934757;29;20177;-77
2023/09/26 01:58:04;;;;;;;2.83;1.50;;;15.20;99.90;;;;;;4935141;29;20740;-77
2023/09/26 02:00:30;;;;;;;3.27;1.67;;;15.20;99.90;;;;;;4903380;29;21028;-77
2023/09/26 02:02:57;;;;;;;3.53;2.00;;;15.20;99.90;;;;;;4935258;29;20197;-76
2023/09/26 02:05:23;;;;;;;3.63;1.97;;;15.20;99.90;;;;;;4934290;29;20275;-76
2023/09/26 02:07:50;;;;;;;3.10;1.77;;;15.10;99.90;;;;;;4934238;29;20648;-76
2023/09/26 02:10:17;;;;;;;3.23;1.60;;;15.10;99.90;;;;;;4918367;29;20596;-76
2023/09/26 02:12:46;;;;;;;3.33;2.00;;;15.10;99.90;;;;;;4934270;29;20656;-76
2023/09/26 02:15:12;;;;;;;2.10;1.53;;;15.00;99.90;;;;;;4934073;29;20629;-76
2023/09/26 02:17:39;;;;;;;2.60;1.50;;;15.00;99.90;;;;;;4927473;29;20671;-76
2023/09/26 02:20:12;;;;;;;2.93;1.77;;;15.00;99.90;;;;;;4934161;29;20593;-76
2023/09/26 02:22:49;;;;;;;6.20;2.37;;;15.00;99.90;;;;;;4943885;29;20706;-76
2023/09/26 02:25:18;;;;;;;3.50;1.87;;;15.00;99.90;;;;;;4945228;29;20588;-76
2023/09/26 02:27:44;;;;;;;3.17;1.90;;;15.00;99.90;;;;;;4953188;29;20606;-76
2023/09/26 02:30:14;;;;;;;3.40;2.10;;;15.00;99.90;;;;;;4957565;29;20588;-76
2023/09/26 02:32:40;;;;;;;2.30;1.60;;;15.00;99.90;;;;;;4937024;29;20676;-76
2023/09/26 02:35:13;;;;;;;2.50;1.70;;;15.00;99.90;;;;;;4952106;28;20962;-76
2023/09/26 02:37:40;;;;;;;3.77;2.37;;;14.90;99.90;;;;;;4920696;29;20679;-76
2023/09/26 02:40:07;;;;;;;4.03;1.88;;;14.90;99.90;;;;;;4953008;28;20624;-76
2023/09/26 02:42:33;;;;;;;2.47;1.50;;;14.90;99.90;;;;;;4952929;29;20700;-74
2023/09/26 02:44:59;;;;;;;4.37;1.93;;;14.90;99.90;;;;;;4953891;29;20576;-75
2023/09/26 02:47:25;;;;;;;3.70;2.30;;;14.90;99.90;;;;;;4952757;29;21170;-75
2023/09/26 02:49:51;;;;;;;3.35;2.40;;;14.90;99.90;;;;;;4952915;29;20185;-75
2023/09/26 02:52:17;;;;;;;2.67;1.70;;;14.90;99.90;;;;;;4952773;29;20208;-75
2023/09/26 02:54:42;;;;;;;3.23;1.93;;;14.90;99.90;;;;;;4953685;29;20191;-75
2023/09/26 02:57:09;;;;;;;3.30;2.17;;;14.80;99.90;;;;;;4952818;29;20259;-75
2023/09/26 02:59:35;;;;;;;4.17;2.23;;;14.80;99.90;;;;;;4936676;29;20696;-74
2023/09/26 03:02:00;;;;;;;2.27;1.70;;;14.80;99.90;;;;;;4952560;29;20728;-75
2023/09/26 03:04:26;;;;;;;2.93;2.07;;;14.80;99.90;;;;;;4953866;29;20905;-76
2023/09/26 03:06:53;;;;;;;3.80;2.30;;;14.80;99.90;;;;;;4944469;29;20653;-76
2023/09/26 03:09:19;;;;;;;3.27;1.63;;;14.70;99.90;;;;;;4933443;29;20680;-76
2023/09/26 03:11:44;;;;;;;2.90;2.27;;;14.70;99.90;;;;;;4933037;29;20245;-76
2023/09/26 03:14:10;;;;;;;3.40;2.03;;;14.70;99.90;;;;;;4933165;29;20185;-76
2023/09/26 03:16:36;;;;;;;5.10;2.77;;;14.70;99.90;;;;;;4933344;29;20176;-76
2023/09/26 03:19:02;;;;;;;4.50;2.40;;;14.60;99.90;;;;;;4932989;29;20240;-76
2023/09/26 03:21:28;;;;;;;3.30;2.37;;;14.60;99.90;;;;;;4932703;29;21174;-76
2023/09/26 03:23:53;;;;;;;2.90;1.70;;;14.60;99.90;;;;;;4934035;29;21005;-76
2023/09/26 03:26:19;;;;;;;4.90;2.33;;;14.60;99.90;;;;;;4932964;29;20657;-76
2023/09/26 03:28:45;;;;;;;1.97;1.53;;;14.60;99.90;;;;;;4932936;29;20605;-76
2023/09/26 03:31:11;;;;;;;2.87;2.27;;;14.50;99.90;;;;;;4932797;29;20227;-76
2023/09/26 03:33:38;;;;;;;2.40;1.53;;;14.60;99.90;;;;;;4916970;29;20300;-76
2023/09/26 03:36:04;;;;;;;4.13;2.07;;;14.50;99.90;;;;;;4932520;29;20597;-76
2023/09/26 03:38:30;;;;;;;2.60;1.80;;;14.50;99.90;;;;;;4932639;29;20636;-76
2023/09/26 03:41:00;;;;;;;3.00;2.30;;;14.50;99.90;;;;;;4932823;29;20593;-76
2023/09/26 03:43:26;;;;;;;5.63;2.63;;;14.50;99.90;;;;;;4918996;29;20990;-76
2023/09/26 03:46:02;;;;;;;3.57;2.60;;;14.40;99.90;;;;;;4917772;29;20599;-76
2023/09/26 03:48:30;;;;;;;3.95;1.92;;;14.40;99.90;;;;;;4932596;29;20592;-75
2023/09/26 03:51:05;;;;;;;3.53;2.05;;;14.40;99.90;;;;;;4932658;29;20177;-76
2023/09/26 03:53:31;;;;;;;2.60;1.90;;;14.40;99.90;;;;;;4934297;29;20208;-76
2023/09/26 03:55:56;;;;;;;3.00;2.30;;;14.40;99.90;;;;;;4946358;29;20647;-76
2023/09/26 03:58:22;;;;;;;7.23;2.23;;;14.40;99.90;;;;;;4932521;29;20212;-76
2023/09/26 04:00:48;;;;;;;3.03;2.30;;;14.30;99.90;;;;;;4932386;29;20642;-76
2023/09/26 04:03:14;;;;;;;5.00;2.20;;;14.30;99.90;;;;;;4932383;29;20236;-76
2023/09/26 04:05:40;;;;;;;4.33;2.37;;;14.30;99.90;;;;;;4952001;29;20552;-76
2023/09/26 04:08:07;;;;;;;3.08;2.17;;;14.30;99.90;;;;;;4942829;29;20173;-76
2023/09/26 04:10:36;;;;;;;3.05;2.50;;;14.30;99.90;;;;;;4932369;29;20177;-76
2023/09/26 04:13:02;;;;;;;4.17;2.87;;;14.30;99.90;;;;;;4932264;29;20241;-77
2023/09/26 04:15:28;;;;;;;7.27;2.00;;;14.30;99.90;;;;;;4940089;29;20615;-76
2023/09/26 04:17:54;;;;;;;4.22;2.75;;;14.30;99.90;;;;;;4938193;29;20204;-76
2023/09/26 04:20:20;;;;;;;4.30;2.60;;;14.30;99.90;;;;;;4954596;29;20660;-76
2023/09/26 04:22:47;;;;;;;3.73;2.00;;;14.30;99.90;;;;;;4933996;29;20207;-76
2023/09/26 04:25:13;;;;;;;2.20;1.87;;;14.30;99.90;;;;;;4933358;29;20538;-76
2023/09/26 04:27:38;;;;;;;3.50;2.87;;;14.30;99.90;;;;;;4933483;29;20585;-77
2023/09/26 04:30:06;;;;;;;7.27;2.40;;;14.30;99.90;;;;;;4932146;29;20651;-76
2023/09/26 04:32:32;;;;;;;4.53;2.17;;;14.30;99.90;;;;;;4934337;29;20216;-76
2023/09/26 04:34:58;;;;;;;5.50;2.63;;;14.30;99.90;;;;;;4932472;29;20595;-76
2023/09/26 04:37:24;;;;;;;3.93;2.50;;;14.20;99.90;;;;;;4941816;29;20283;-76
2023/09/26 04:39:49;;;;;;;4.87;2.50;;;14.20;99.90;;;;;;4952809;29;20179;-76
2023/09/26 04:42:15;;;;;;;3.50;2.50;;;14.20;99.90;;;;;;4952865;29;20196;-76
2023/09/26 04:44:41;;;;;;;3.57;2.40;;;14.20;99.90;;;;;;4951045;29;20672;-77
2023/09/26 04:47:07;;;;;;;5.60;2.50;;;14.20;99.90;;;;;;4951042;29;20258;-77
2023/09/26 04:49:36;;;;;;;3.72;2.63;;;14.20;99.90;;;;;;4943131;29;20193;-77
2023/09/26 04:52:04;;;;;;;3.40;2.33;;;14.20;99.90;;;;;;4932065;29;20208;-77
2023/09/26 04:54:30;;;;;;;3.00;2.03;;;14.20;99.90;;;;;;4949549;29;20185;-75
2023/09/26 04:56:56;;;;;;;3.63;2.37;;;14.20;99.90;;;;;;4938857;29;20228;-76
2023/09/26 04:59:22;;;;;;;3.97;1.97;;;14.20;99.90;;;;;;4946753;29;20172;-77
2023/09/26 05:01:48;;;;;;;3.47;2.70;;;14.10;99.90;;;;;;4940165;29;20638;-77
2023/09/26 05:04:14;;;;;;;3.47;2.75;;;14.20;99.90;;;;;;4943452;29;20188;-77
2023/09/26 05:06:40;;;;;;;3.77;2.57;;;14.10;99.90;;;;;;4947036;29;20671;-77
2023/09/26 05:09:07;;;;;;;3.55;2.50;;;14.10;99.90;;;;;;4954609;29;20999;-77
2023/09/26 05:11:33;;;;;;;4.47;2.60;;;14.10;99.90;;;;;;4956091;29;20228;-78
2023/09/26 05:14:00;;;;;;;3.08;2.10;;;14.10;99.90;;;;;;4949799;29;20240;-76
2023/09/26 05:16:26;;;;;;;2.73;2.07;;;14.10;99.90;;;;;;4937646;29;20177;-76
2023/09/26 05:18:52;;;;;;;3.63;2.43;;;14.10;99.90;;;;;;4951926;29;20647;-77
2023/09/26 05:21:18;;;;;;;3.40;2.33;;;14.10;99.90;;;;;;4947102;29;20185;-77
2023/09/26 05:23:43;;;;;;;4.80;2.60;;;14.10;99.90;;;;;;4944115;29;20220;-76
2023/09/26 05:26:11;;;;;;;2.70;2.20;;;14.10;99.90;;;;;;4926973;29;20236;-76
2023/09/26 05:28:38;;;;;;;4.53;2.70;;;14.10;99.90;;;;;;4919272;29;20636;-77
2023/09/26 05:31:04;;;;;;;3.90;2.60;;;14.10;99.90;;;;;;4948382;29;20184;-76
2023/09/26 05:33:30;;;;;;;3.25;2.53;;;14.10;99.90;;;;;;4946533;29;20243;-76
2023/09/26 05:35:56;;;;;;;4.43;2.72;;;14.10;99.90;;;;;;4958944;29;20191;-77
2023/09/26 05:38:22;;;;;;;3.27;2.77;;;14.10;99.90;;;;;;4953565;29;20208;-76
2023/09/26 05:40:50;;;;;;;2.78;2.10;;;14.10;99.90;;;;;;4953787;29;20181;-76
2023/09/26 05:43:15;;;;;;;3.50;2.37;;;14.10;99.90;;;;;;4953608;29;20196;-77
2023/09/26 05:45:41;;;;;;;4.43;2.30;;;14.10;99.90;;;;;;4953653;29;20568;-77
2023/09/26 05:48:07;;;;;;;4.97;3.00;;;14.10;99.90;;;;;;4941460;29;20192;-77
2023/09/26 05:50:33;;;;;;;4.73;2.40;;;14.10;99.90;;;;;;4934603;29;21226;-77
2023/09/26 05:53:00;;;;;;;3.87;3.47;;;14.10;99.90;;;;;;4934689;29;20612;-77
2023/09/26 05:55:26;;;;;;;3.57;2.30;;;14.10;99.90;;;;;;4950313;29;20191;-77
2023/09/26 05:57:52;;;;;;;3.28;2.50;;;14.20;99.90;;;;;;4934263;29;20640;-76
2023/09/26 06:00:18;;;;;;;3.30;2.97;;;14.20;99.90;;;;;;4934733;29;20187;-76
2023/09/26 06:02:44;;;;;;;4.43;2.87;;;14.20;99.90;;;;;;4944806;29;20204;-77
2023/09/26 06:05:26;;;;;;;5.20;2.72;;;14.30;99.90;;;;;;4934708;29;20592;-78
2023/09/26 06:07:53;;;;;;;3.07;1.90;;;14.30;99.90;;;;;;4946125;29;20180;-78
2023/09/26 06:10:19;;;;;;;6.60;3.20;;;14.30;99.90;;;;;;4948912;28;21155;-72
2023/09/26 06:12:45;;;;;;;4.43;2.47;;;14.40;99.90;;;;;;4945690;29;20620;-72
2023/09/26 06:15:10;;;;;;;3.60;2.80;;;14.40;99.90;;;;;;4929843;29;21237;-71
2023/09/26 06:17:36;;;;;;;4.77;2.93;;;14.40;99.90;;;;;;4953974;29;20232;-73
2023/09/26 06:20:05;;;;;;;3.60;2.10;;;14.40;99.90;;;;;;4954064;29;20188;-74
2023/09/26 06:22:32;;;;;;;3.40;2.83;;;14.50;99.90;;;;;;4954199;29;20303;-72
2023/09/26 06:25:00;;;;;;;2.87;2.60;;;14.60;99.90;;;;;;4961315;29;20617;-78
2023/09/26 06:27:26;;;;;;;4.20;2.53;;;14.60;99.90;;;;;;4956408;29;20207;-78
2023/09/26 06:29:52;;;;;;;3.83;2.20;;;14.70;99.90;;;;;;4946952;29;20619;-78
2023/09/26 06:32:34;;;;;;;3.93;2.40;;;14.80;99.90;;;;;;4939552;29;20678;-77
2023/09/26 06:35:00;;;;;;;4.83;2.70;;;14.80;99.90;;;;;;4935096;29;20592;-77
2023/09/26 06:37:26;;;;;;;5.03;2.93;;;14.90;99.90;;;;;;4935152;29;20668;-77
2023/09/26 06:39:52;;;;;;;3.73;2.63;;;15.00;99.90;;;;;;4945226;29;20635;-77
2023/09/26 06:42:18;;;;;;;7.17;3.27;;;15.10;99.90;;;;;;4953151;29;20627;-77
2023/09/26 06:44:43;;;;;;;3.33;2.50;;;15.20;99.90;;;;;;4935145;29;20614;-76
2023/09/26 06:47:10;;;;;;;4.90;2.63;;;15.20;99.90;;;;;;4945024;29;20180;-76
2023/09/26 06:49:36;;;;;;;5.30;3.00;;;15.30;99.90;;;;;;4950455;29;20589;-76
2023/09/26 06:52:01;;;;;;;3.40;2.60;;;15.40;99.90;;;;;;4951242;29;20638;-77
2023/09/26 06:54:27;;;;;;;5.77;2.80;;;15.50;99.90;;;;;;4952768;29;20196;-77
2023/09/26 06:56:53;;;;;;;2.70;2.50;;;15.60;99.90;;;;;;4952642;29;20644;-77
2023/09/26 06:59:18;;;;;;;6.83;3.67;;;15.60;99.90;;;;;;4939516;29;20734;-76
2023/09/26 07:01:44;;;;;;;5.20;2.47;;;15.70;99.90;;;;;;4937326;29;20204;-77
2023/09/26 07:04:14;;;;;;;4.30;2.83;;;15.70;99.90;;;;;;4952557;29;20604;-77
2023/09/26 07:06:41;;;;;;;5.00;2.90;;;15.80;99.90;;;;;;4953826;29;20187;-75
2023/09/26 07:09:08;;;;;;;4.10;2.80;;;15.80;99.90;;;;;;4953737;29;21150;-76
2023/09/26 07:11:34;;;;;;;5.23;2.67;;;15.80;99.90;;;;;;4953520;29;20584;-76
2023/09/26 07:13:59;;;;;;;5.10;2.87;;;15.90;99.90;;;;;;4916851;29;20597;-75
2023/09/26 07:16:25;;;;;;;6.90;2.20;;;16.00;99.90;;;;;;4932601;29;20679;-76
2023/09/26 07:18:51;;;;;;;4.67;2.90;;;16.00;99.90;;;;;;4928368;29;20302;-75
2023/09/26 07:21:17;;;;;;;5.13;2.80;;;16.10;99.90;;;;;;4951815;28;21245;-75
2023/09/26 07:23:43;;;;;;;5.97;2.70;;;16.10;99.90;;;;;;4951738;29;20204;-75
2023/09/26 07:26:12;;;;;;;2.83;2.10;;;16.40;99.90;;;;;;4947858;29;20617;-75
2023/09/26 07:28:39;;;;;;;3.10;2.70;;;16.80;99.90;;;;;;4954939;29;20208;-76
2023/09/26 07:31:05;;;;;;;4.63;3.10;;;17.40;99.90;;;;;;4953671;29;20588;-76
2023/09/26 07:33:32;;;;;;;3.93;2.07;;;18.10;99.90;;;;;;4952032;29;20628;-76
2023/09/26 07:35:58;;;;;;;4.17;2.00;;;18.90;99.90;;;;;;4932888;29;20929;-76
2023/09/26 07:38:24;;;;;;;4.70;2.70;;;19.70;99.90;;;;;;4953964;29;20646;-75
2023/09/26 07:40:49;;;;;;;3.27;1.90;;;20.50;99.90;;;;;;4952086;29;20177;-76
2023/09/26 07:43:15;;;;;;;3.03;2.00;;;21.30;99.90;;;;;;4951870;29;20204;-76
2023/09/26 07:45:41;;;;;;;3.00;1.60;;;22.20;99.90;;;;;;4951776;29;20185;-76
2023/09/26 07:48:07;;;;;;;3.37;1.47;;;23.10;99.90;;;;;;4953349;29;20594;-76
2023/09/26 07:50:33;;;;;;;2.80;1.53;;;23.70;99.90;;;;;;4943495;29;20189;-75
2023/09/26 07:53:01;;;;;;;3.97;1.20;;;24.30;99.90;;;;;;4942406;28;20295;-76
2023/09/26 07:55:26;;;;;;;3.00;1.60;;;24.80;99.90;;;;;;4944724;29;20665;-76
2023/09/26 07:57:52;;;;;;;3.63;1.80;;;25.20;99.90;;;;;;4927777;29;20671;-76
2023/09/26 08:00:18;;;;;;;3.70;1.60;;;25.70;99.90;;;;;;4942380;29;20646;-76
2023/09/26 08:02:44;;;;;;;3.07;1.40;;;26.00;99.90;;;;;;4943111;29;20317;-76
2023/09/26 08:05:09;;;;;;;3.63;1.83;;;26.30;99.90;;;;;;4944880;29;20618;-77
2023/09/26 08:07:36;;;;;;;2.90;1.97;;;26.60;99.90;;;;;;4940638;29;20316;-77
2023/09/26 08:10:02;;;;;;;4.37;1.70;;;26.90;99.10;;;;;;4941359;29;20177;-77
2023/09/26 08:12:28;;;;;;;2.80;1.63;;;27.10;97.40;;;;;;4940491;29;20624;-77
2023/09/26 08:14:54;;;;;;;2.90;1.27;;;27.10;97.40;;;;;;4940332;29;20964;-76
2023/09/26 08:17:20;;;;;;;2.33;1.10;;;27.50;98.60;;;;;;4942152;29;20215;-76
2023/09/26 08:19:45;;;;;;;2.47;1.30;;;28.00;97.50;;;;;;4942380;29;20581;-77
2023/09/26 08:22:11;;;;;;;2.77;1.60;;;28.40;95.20;;;;;;4943721;29;20280;-77
2023/09/26 08:24:37;;;;;;;3.27;1.07;;;28.70;95.50;;;;;;4941400;29;20176;-77
2023/09/26 08:27:02;;;;;;;6.60;1.83;;;29.00;94.20;;;;;;4942550;29;20244;-75
2023/09/26 08:29:28;;;;;;;4.93;2.00;;;29.40;93.40;;;;;;4942592;29;20694;-77
2023/09/26 08:31:54;;;;;;;2.73;1.37;;;29.70;90.40;;;;;;4940616;29;20202;-76
2023/09/26 08:34:20;;;;;;;2.07;1.17;;;29.80;87.90;;;;;;4943815;29;20192;-79
2023/09/26 08:36:46;;;;;;;2.07;1.47;;;30.00;87.30;;;;;;4922078;29;20194;-79
2023/09/26 08:39:12;;;;;;;2.63;1.27;;;30.20;85.20;;;;;;4948566;29;20672;-79
2023/09/26 08:41:38;;;;;;;3.27;1.17;;;30.20;82.70;;;;;;4954939;29;20607;-78
2023/09/26 08:44:04;;;;;;;3.13;1.40;;;30.20;79.70;;;;;;4936286;29;20270;-79
2023/09/26 08:46:30;;;;;;;2.87;1.30;;;30.20;78.20;;;;;;4947379;29;20598;-78
2023/09/26 08:48:59;;;;;;;5.93;1.53;;;30.30;76.50;;;;;;4940047;29;20693;-78
2023/09/26 08:51:31;;;;;;;3.43;1.77;;;30.30;74.40;;;;;;4950056;29;20583;-79
2023/09/26 08:53:57;;;;;;;2.83;1.30;;;30.20;71.30;;;;;;4948855;29;20597;-79
2023/09/26 08:56:23;;;;;;;3.20;1.47;;;29.90;70.30;;;;;;4949215;29;20592;-78
2023/09/26 08:58:50;;;;;;;2.93;1.50;;;29.70;69.10;;;;;;4930649;29;20212;-78
2023/09/26 09:01:18;;;;;;;3.07;1.30;;;29.50;69.00;;;;;;4929962;29;20591;-78
2023/09/26 09:03:44;;;;;;;4.70;1.30;;;29.30;69.20;;;;;;4943723;29;20625;-78
2023/09/26 09:06:10;;;;;;;3.00;1.23;;;29.70;72.00;;;;;;4947392;29;20590;-78
2023/09/26 09:08:36;;;;;;;2.93;1.30;;;30.10;72.20;;;;;;4947460;29;20194;-78
2023/09/26 09:11:01;;;;;;;2.83;1.10;;;30.40;72.20;;;;;;4928148;29;20598;-78
2023/09/26 09:13:28;;;;;;;2.80;1.10;;;30.70;71.80;;;;;;4926216;29;20208;-78
2023/09/26 09:16:15;;;;;;;2.40;1.20;;;30.70;67.50;;;;;;4942418;29;20280;-78
2023/09/26 09:18:44;;;;;;;2.67;1.10;;;30.70;67.00;;;;;;4950878;29;20673;-78
2023/09/26 09:21:33;;;;;;;3.63;1.40;;;30.90;66.90;;;;;;4944403;29;21160;-78
2023/09/26 09:24:00;;;;;;;4.47;1.90;;;31.10;63.20;;;;;;4946353;29;20605;-78
2023/09/26 09:26:31;;;;;;;2.60;1.20;;;31.30;64.10;;;;;;4915679;29;20583;-78
2023/09/26 09:28:59;;;;;;;3.30;1.50;;;31.30;63.50;;;;;;4938680;29;20588;-78
2023/09/26 09:31:27;;;;;;;2.43;1.00;;;31.60;64.00;;;;;;4936675;29;20587;-78
2023/09/26 09:33:55;;;;;;;1.87;1.00;;;31.70;63.20;;;;;;4945429;29;21134;-77
2023/09/26 09:36:21;;;;;;;4.53;1.37;;;31.90;64.30;;;;;;4944127;29;20683;-77
2023/09/26 09:38:47;;;;;;;2.10;1.10;;;32.10;60.70;;;;;;4943087;29;20639;-77
2023/09/26 09:41:12;;;;;;;2.67;1.20;;;32.30;62.30;;;;;;4951611;29;20590;-77
2023/09/26 09:43:38;;;;;;;7.07;1.57;;;32.50;61.60;;;;;;4950497;29;20196;-77
2023/09/26 09:46:10;;;;;;;3.00;1.03;;;32.60;59.50;;;;;;4915846;29;20179;-77
2023/09/26 09:48:41;;;;;;;2.17;1.30;;;32.60;59.70;;;;;;4929071;29;20282;-77
2023/09/26 09:51:10;;;;;;;5.90;1.33;;;32.80;59.30;;;;;;4947059;29;20970;-77
2023/09/26 09:53:36;;;;;;;3.80;1.30;;;32.90;58.80;;;;;;4959171;29;20691;-77
2023/09/26 09:56:06;;;;;;;3.17;1.00;;;33.10;58.80;;;;;;4946478;29;20595;-77
2023/09/26 09:58:33;;;;;;;3.33;1.03;;;33.40;58.70;;;;;;4949375;29;20630;-78
2023/09/26 10:01:00;;;;;;;2.73;1.20;;;33.80;58.40;;;;;;4931702;29;20695;-78
2023/09/26 10:03:30;;;;;;;2.20;1.00;;;34.10;56.00;;;;;;4947594;29;20628;-78
2023/09/26 10:05:57;;;;;;;2.03;0.90;;;34.20;56.70;;;;;;4942918;29;20680;-78
2023/09/26 10:08:23;;;;;;;2.33;1.33;;;34.00;55.00;;;;;;4942127;29;21270;-78
2023/09/26 10:10:50;;;;;;;2.20;1.50;;;33.80;54.20;;;;;;4947057;29;20618;-78
2023/09/26 10:13:17;;;;;;;3.03;1.00;;;33.60;53.80;;;;;;4949756;29;20623;-78
2023/09/26 10:16:06;;;;;;;2.03;1.10;;;33.30;53.40;;;;;;4945915;29;20577;-77
2023/09/26 10:18:39;;;;;;;2.23;1.10;;;33.10;53.80;;;;;;4942250;29;20612;-77
2023/09/26 10:21:24;;;;;;;2.43;1.03;;;32.80;53.40;;;;;;4920495;29;20593;-78
2023/09/26 10:24:19;;;;;;;2.37;1.07;;;32.50;53.60;;;;;;4929791;29;20686;-77
2023/09/26 10:26:50;;;;;;;1.60;0.90;;;32.40;54.20;;;;;;4923110;29;20591;-77
2023/09/26 10:29:26;;;;;;;2.40;1.13;;;32.40;54.30;;;;;;4944501;29;20699;-78
2023/09/26 10:31:57;;;;;;;2.47;1.13;;;32.40;54.70;;;;;;4950410;29;20620;-77
2023/09/26 10:34:28;;;;;;;2.70;1.10;;;32.70;55.20;;;;;;4936569;29;20588;-77
2023/09/26 10:36:58;;;;;;;2.10;1.10;;;32.70;54.80;;;;;;4941177;29;20595;-75
2023/09/26 10:39:41;;;;;;;3.03;1.13;;;32.90;54.30;;;;;;4945148;29;20693;-76
2023/09/26 10:42:15;;;;;;;3.03;1.13;;;32.70;50.30;;;;;;4943999;29;20628;-76
2023/09/26 10:44:43;;;;;;;2.90;1.00;;;32.80;53.80;;;;;;4929568;29;20604;-75
2023/09/26 10:47:12;;;;;;;2.43;1.07;;;32.70;53.00;;;;;;4940568;29;20600;-76
2023/09/26 10:49:38;;;;;;;4.97;1.90;;;32.30;52.00;;;;;;4942480;29;20584;-76
2023/09/26 10:52:08;;;;;;;3.53;1.10;;;31.90;51.50;;;;;;4944017;29;20670;-76
2023/09/26 10:54:35;;;;;;;2.30;1.17;;;31.80;52.80;;;;;;4944237;29;20183;-76
2023/09/26 10:57:01;;;;;;;3.40;0.90;;;31.70;52.80;;;;;;4926207;29;20961;-76
2023/09/26 10:59:31;;;;;;;2.50;1.13;;;31.60;52.60;;;;;;4940033;29;20621;-76
2023/09/26 11:01:58;;;;;;;5.90;1.40;;;31.40;52.70;;;;;;4943541;29;20197;-76
2023/09/26 11:04:31;;;;;;;2.73;0.93;;;31.40;53.50;;;;;;4942445;29;20630;-75
2023/09/26 11:07:02;;;;;;;2.33;1.00;;;31.20;52.90;;;;;;4928068;29;21162;-75
2023/09/26 11:09:29;;;;;;;2.17;1.00;;;31.20;53.10;;;;;;4920749;29;20599;-75
2023/09/26 11:11:56;;;;;;;1.77;1.00;;;31.30;53.80;;;;;;4942298;29;20616;-75
2023/09/26 11:14:26;;;;;;;5.63;1.00;;;31.30;53.30;;;;;;4941850;29;20586;-75
2023/09/26 11:16:52;;;;;;;4.10;0.80;;;31.10;53.00;;;;;;4927749;29;20684;-75
2023/09/26 11:19:21;;;;;;;1.93;0.90;;;31.00;53.00;;;;;;4943733;29;20601;-75
2023/09/26 11:21:54;;;;;;;3.60;1.00;;;31.00;53.50;;;;;;4942910;28;20643;-75
2023/09/26 11:24:23;;;;;;;2.43;0.90;;;31.10;53.40;;;;;;4941165;29;20584;-75
2023/09/26 11:26:57;;;;;;;5.30;1.10;;;31.20;52.50;;;;;;4944345;29;20665;-75
2023/09/26 11:29:23;;;;;;;2.67;1.00;;;31.00;52.70;;;;;;4925121;29;20651;-75
2023/09/26 11:31:52;;;;;;;2.30;0.90;;;30.90;52.70;;;;;;4916306;29;20628;-75
2023/09/26 11:34:19;;;;;;;1.80;0.90;;;30.80;52.50;;;;;;4945707;29;20678;-75
2023/09/26 11:36:45;;;;;;;1.90;1.00;;;30.60;52.70;;;;;;4925805;29;20598;-75
2023/09/26 11:39:29;;;;;;;3.10;0.90;;;30.60;53.00;;;;;;4942846;29;21011;-75
2023/09/26 11:42:05;;;;;;;1.87;1.00;;;30.60;53.20;;;;;;4946282;29;20207;-75
2023/09/26 11:44:31;;;;;;;1.70;0.90;;;30.70;52.70;;;;;;4942733;29;20589;-75
2023/09/26 11:46:58;;;;;;;3.13;1.10;;;30.60;52.80;;;;;;4925972;29;20610;-75
2023/09/26 11:49:28;;;;;;;2.57;1.00;;;30.50;52.00;;;;;;4942493;29;20262;-75
2023/09/26 11:51:54;;;;;;;2.27;0.80;;;30.50;51.50;;;;;;4917167;29;21418;-75
2023/09/26 11:54:23;;;;;;;1.50;0.80;;;30.30;51.10;;;;;;4923638;29;20649;-75
2023/09/26 11:56:49;;;;;;;3.47;1.30;;;30.10;51.20;;;;;;4942591;29;20595;-76
2023/09/26 11:59:17;;;;;;;2.30;1.00;;;29.90;50.90;;;;;;4943492;29;20585;-76
2023/09/26 12:01:43;;;;;;;2.20;1.40;;;29.80;51.10;;;;;;4942312;29;20204;-76
2023/09/26 12:04:13;;;;;;;2.03;1.07;;;29.70;51.20;;;;;;4941081;29;20675;-77
2023/09/26 12:06:40;;;;;;;2.10;1.13;;;29.60;51.40;;;;;;4941355;29;20180;-76
2023/09/26 12:09:19;;;;;;;2.20;1.00;;;29.50;51.20;;;;;;4941853;29;20644;-76
2023/09/26 12:11:46;;;;;;;2.43;0.97;;;29.40;51.50;;;;;;4948882;29;20639;-76
2023/09/26 12:14:14;;;;;;;3.00;1.20;;;29.40;51.80;;;;;;4932318;29;20592;-76
2023/09/26 12:16:44;;;;;;;1.83;1.00;;;29.50;51.90;;;;;;4942571;29;20592;-76
2023/09/26 12:19:11;;;;;;;2.20;0.80;;;29.50;51.80;;;;;;4943620;29;20589;-76
2023/09/26 12:21:36;;;;;;;2.50;0.90;;;29.50;51.90;;;;;;4930352;29;20672;-76
2023/09/26 12:24:02;;;;;;;2.00;0.93;;;29.30;51.40;;;;;;4944469;29;20684;-76
2023/09/26 12:26:28;;;;;;;1.63;0.80;;;29.20;51.40;;;;;;4938725;29;20600;-76
2023/09/26 12:28:56;;;;;;;2.00;1.00;;;29.10;51.80;;;;;;4944406;29;20799;-76
2023/09/26 12:31:22;;;;;;;2.90;1.00;;;29.10;51.90;;;;;;4942453;29;20283;-76
2023/09/26 12:33:48;;;;;;;2.50;0.90;;;29.00;51.80;;;;;;4939680;29;20838;-77
2023/09/26 12:36:16;;;;;;;4.10;2.17;;;28.90;51.90;;;;;;4940513;29;20187;-76
2023/09/26 12:38:42;;;;;;;2.90;1.50;;;28.80;52.00;;;;;;4940820;29;20184;-76
2023/09/26 12:41:08;;;;;;;2.63;1.30;;;28.80;52.20;;;;;;4926617;29;21216;-76
2023/09/26 12:43:37;;;;;;;3.37;1.67;;;28.80;51.90;;;;;;4939862;29;20339;-76
2023/09/26 12:46:02;;;;;;;2.73;1.07;;;28.70;52.00;;;;;;4940779;29;20565;-76
2023/09/26 12:48:31;;;;;;;2.10;1.20;;;28.60;52.30;;;;;;4945471;29;20627;-76